Time;durP1;ratioP1;P1;durP2;ratioP2;P2;SDS_P1;SDS_P2;PMS_P1;PMS_P2;Temp;Humidity;BMP_temperature;BMP_pressure;BME280_temperature;BME280_humidity;BME280_pressure;Samples;Min_cycle;Max_cycle;Signal;HPM_P1;HPM_P2
2022/05/12 00:02:25;;;;;;;4.50;1.30;;;;;;;13.99;65.13;101278.53;5060492;28;20024;-79
2022/05/12 00:04:50;;;;;;;4.75;1.38;;;;;;;13.93;65.03;101283.97;5059145;28;20360;-79
2022/05/12 00:07:15;;;;;;;5.53;1.50;;;;;;;13.87;65.54;101285.03;5062126;28;20070;-79
2022/05/12 00:09:40;;;;;;;3.97;1.27;;;;;;;13.83;65.40;101287.78;5053458;28;20387;-78
2022/05/12 00:12:06;;;;;;;5.68;1.40;;;;;;;13.79;65.48;101287.00;5059277;28;20029;-79
2022/05/12 00:14:32;;;;;;;5.07;1.50;;;;;;;13.77;65.23;101289.69;5064480;28;20486;-78
2022/05/12 00:16:57;;;;;;;6.43;1.50;;;;;;;13.75;64.93;101282.81;5066775;28;20043;-78
2022/05/12 00:19:26;;;;;;;5.38;1.50;;;;;;;13.71;65.46;101300.34;5058013;28;20066;-78
2022/05/12 00:21:52;;;;;;;5.43;1.30;;;;;;;13.69;65.51;101299.53;5059186;28;20025;-79
2022/05/12 00:24:17;;;;;;;6.28;1.67;;;;;;;13.66;65.37;101302.25;5062332;28;20048;-77
2022/05/12 00:26:43;;;;;;;5.68;1.50;;;;;;;13.62;65.49;101306.72;5056329;28;20450;-80
2022/05/12 00:29:09;;;;;;;3.00;1.20;;;;;;;13.59;65.04;101300.72;5055711;28;20043;-77
2022/05/12 00:31:37;;;;;;;4.35;1.40;;;;;;;13.57;65.22;101310.38;5058630;28;20029;-77
2022/05/12 00:34:04;;;;;;;5.45;1.48;;;;;;;13.53;65.59;101313.97;5061568;28;20070;-77
2022/05/12 00:36:29;;;;;;;5.43;1.50;;;;;;;13.50;65.84;101312.31;5066010;28;20036;-78
2022/05/12 00:38:55;;;;;;;5.05;1.50;;;;;;;13.49;65.89;101318.44;5057544;28;20025;-78
2022/05/12 00:41:20;;;;;;;4.50;1.40;;;;;;;13.46;66.18;101322.03;5055880;28;20020;-78
2022/05/12 00:43:48;;;;;;;5.20;1.35;;;;;;;13.47;66.00;101322.88;5053723;28;20044;-78
2022/05/12 00:46:17;;;;;;;6.72;1.45;;;;;;;13.47;66.43;101323.75;5053204;28;20035;-78
2022/05/12 00:48:43;;;;;;;6.07;1.60;;;;;;;13.49;66.75;101331.53;5052215;28;20033;-78
2022/05/12 00:51:11;;;;;;;4.50;1.30;;;;;;;13.50;66.63;101328.84;5056145;28;20037;-78
2022/05/12 00:53:38;;;;;;;5.38;1.30;;;;;;;13.54;66.31;101339.22;5058918;28;20138;-78
2022/05/12 00:56:07;;;;;;;6.20;2.00;;;;;;;13.54;66.31;101328.75;5059780;28;20072;-78
2022/05/12 00:58:34;;;;;;;5.88;1.40;;;;;;;13.53;66.14;101338.38;5055330;28;20433;-78
2022/05/12 01:01:03;;;;;;;6.43;1.33;;;;;;;13.54;66.10;101344.44;5063072;28;20032;-78
2022/05/12 01:03:29;;;;;;;7.38;1.30;;;;;;;13.48;66.03;101341.13;5058194;28;20020;-78
2022/05/12 01:05:54;;;;;;;4.95;1.50;;;;;;;13.46;66.02;101342.94;5054447;28;20033;-78
2022/05/12 01:08:21;;;;;;;4.95;1.20;;;;;;;13.42;66.20;101338.69;5058053;28;20032;-78
2022/05/12 01:10:52;;;;;;;6.07;1.23;;;;;;;13.43;65.82;101336.91;5057629;28;20048;-78
2022/05/12 01:13:19;;;;;;;3.97;1.73;;;;;;;13.46;65.89;101347.28;5058015;28;20032;-78
2022/05/12 01:15:56;;;;;;;4.70;1.30;;;;;;;13.49;65.20;101342.81;5060080;28;20719;-78
2022/05/12 01:18:25;;;;;;;5.43;1.40;;;;;;;13.50;65.52;101354.13;5055920;28;20105;-78
2022/05/12 01:20:51;;;;;;;4.43;1.33;;;;;;;13.49;65.27;101357.66;5054940;28;20533;-78
2022/05/12 01:23:31;;;;;;;6.05;1.70;;;;;;;13.45;64.79;101356.03;5053992;28;20033;-78
2022/05/12 01:26:09;;;;;;;4.43;1.20;;;;;;;13.40;64.85;101361.41;5054950;28;20029;-78
2022/05/12 01:28:35;;;;;;;4.20;1.40;;;;;;;13.36;65.26;101372.81;5050793;28;20036;-78
2022/05/12 01:31:01;;;;;;;4.00;1.30;;;;;;;13.32;65.31;101371.19;5061521;28;20020;-77
2022/05/12 01:33:27;;;;;;;5.65;1.30;;;;;;;13.30;65.23;101378.22;5055029;28;20142;-78
2022/05/12 01:35:52;;;;;;;3.05;1.08;;;;;;;13.27;64.84;101379.16;5056526;28;20402;-78
2022/05/12 01:38:18;;;;;;;4.65;1.30;;;;;;;13.28;65.00;101374.78;5059813;28;20078;-78
2022/05/12 01:40:44;;;;;;;3.50;1.30;;;;;;;13.26;64.93;101381.81;5057023;28;20020;-78
2022/05/12 01:43:12;;;;;;;4.00;1.30;;;;;;;13.23;64.81;101388.00;5054504;28;20406;-78
2022/05/12 01:45:37;;;;;;;3.00;1.10;;;;;;;13.20;65.07;101395.91;5050243;28;20036;-77
2022/05/12 01:48:04;;;;;;;3.70;1.05;;;;;;;13.17;64.86;101402.06;5053291;28;20020;-78
2022/05/12 01:50:30;;;;;;;4.35;1.40;;;;;;;13.12;65.16;101403.97;5054073;28;20107;-78
2022/05/12 01:52:55;;;;;;;3.50;1.17;;;;;;;13.08;65.01;101397.09;5050491;28;20132;-78
2022/05/12 01:55:21;;;;;;;2.08;1.10;;;;;;;13.02;65.13;101395.53;5056526;28;20475;-78
2022/05/12 01:57:47;;;;;;;2.60;0.95;;;;;;;12.98;65.11;101400.88;5060839;28;20046;-78
2022/05/12 02:00:17;;;;;;;2.20;0.90;;;;;;;12.95;65.52;101398.34;5055777;28;20056;-78
2022/05/12 02:02:42;;;;;;;2.40;1.10;;;;;;;12.91;65.50;101397.53;5053209;28;20048;-78
2022/05/12 02:05:10;;;;;;;3.10;1.10;;;;;;;12.89;65.53;101400.22;5057129;28;20130;-78
2022/05/12 02:07:40;;;;;;;4.72;1.00;;;;;;;12.89;65.26;101405.44;5069680;28;20020;-78
2022/05/12 02:10:07;;;;;;;4.53;1.10;;;;;;;12.89;65.61;101415.03;5056062;28;20388;-77
2022/05/12 02:12:32;;;;;;;3.13;1.00;;;;;;;12.87;65.40;101412.44;5057427;28;20039;-78
2022/05/12 02:14:57;;;;;;;3.25;1.02;;;;;;;12.84;64.62;101420.34;5055846;28;20021;-78
2022/05/12 02:17:23;;;;;;;3.35;1.00;;;;;;;12.81;64.64;101417.81;5051899;28;20442;-78
2022/05/12 02:19:48;;;;;;;2.70;1.10;;;;;;;12.77;64.87;101425.78;5056125;28;20043;-78
2022/05/12 02:22:14;;;;;;;2.97;1.15;;;;;;;12.73;65.05;101420.63;5055024;28;20056;-78
2022/05/12 02:24:39;;;;;;;3.40;1.13;;;;;;;12.68;65.35;101427.75;5056551;28;20131;-77
2022/05/12 02:27:04;;;;;;;3.97;1.42;;;;;;;12.64;65.33;101435.69;5055718;28;20476;-78
2022/05/12 02:29:30;;;;;;;2.55;1.30;;;;;;;12.62;65.39;101427.03;5054676;28;20032;-78
2022/05/12 02:31:55;;;;;;;2.90;1.13;;;;;;;12.58;65.59;101439.28;5055621;28;20450;-78
2022/05/12 02:34:20;;;;;;;3.33;1.27;;;;;;;12.54;65.64;101440.28;5055540;28;20036;-78
2022/05/12 02:36:59;;;;;;;2.95;1.30;;;;;;;12.48;65.73;101430.81;5056288;28;20060;-78
2022/05/12 02:39:37;;;;;;;2.72;1.08;;;;;;;12.43;65.16;101443.13;5054647;28;20028;-78
2022/05/12 02:42:04;;;;;;;2.78;1.30;;;;;;;12.39;66.07;101452.78;5057751;28;20044;-78
2022/05/12 02:44:30;;;;;;;3.03;1.23;;;;;;;12.39;66.32;101446.72;5056623;28;20032;-78
2022/05/12 02:46:55;;;;;;;5.55;1.50;;;;;;;12.36;66.75;101458.09;5052619;28;20068;-78
2022/05/12 02:49:21;;;;;;;5.78;1.42;;;;;;;12.35;66.63;101465.94;5055130;28;21288;-78
2022/05/12 02:51:47;;;;;;;5.95;1.55;;;;;;;12.33;66.72;101462.50;5058097;28;20046;-77
2022/05/12 02:54:14;;;;;;;3.70;1.42;;;;;;;12.29;66.89;101462.59;5055542;28;20036;-78
2022/05/12 02:56:40;;;;;;;4.40;1.58;;;;;;;12.28;66.63;101471.31;5050705;28;20518;-78
2022/05/12 02:59:06;;;;;;;4.13;1.45;;;;;;;12.26;66.85;101469.63;5056348;28;20108;-78
2022/05/12 03:01:31;;;;;;;4.80;1.30;;;;;;;12.23;66.82;101473.16;5055194;28;20038;-78
2022/05/12 03:03:57;;;;;;;3.75;1.52;;;;;;;12.20;66.98;101467.16;5054789;28;20037;-78
2022/05/12 03:06:22;;;;;;;6.28;1.60;;;;;;;12.15;67.12;101469.84;5051052;28;20052;-77
2022/05/12 03:08:47;;;;;;;3.20;1.50;;;;;;;12.12;67.45;101469.94;5057053;28;20032;-78
2022/05/12 03:11:12;;;;;;;5.55;1.40;;;;;;;12.09;67.37;101475.22;5057768;28;20044;-78
2022/05/12 03:13:38;;;;;;;4.32;1.55;;;;;;;12.07;67.49;101474.38;5056808;28;20078;-78
2022/05/12 03:16:03;;;;;;;6.18;1.45;;;;;;;12.04;67.65;101471.84;5052697;28;20103;-78
2022/05/12 03:18:29;;;;;;;5.25;2.00;;;;;;;12.01;67.41;101477.13;5057810;28;20110;-78
2022/05/12 03:20:54;;;;;;;5.95;1.70;;;;;;;11.99;67.68;101474.56;5054982;28;20033;-78
2022/05/12 03:23:22;;;;;;;5.93;1.60;;;;;;;11.97;67.76;101482.38;5055605;28;20025;-77
2022/05/12 03:25:48;;;;;;;6.13;2.03;;;;;;;11.96;67.81;101480.66;5051531;28;20040;-78
2022/05/12 03:28:14;;;;;;;4.35;1.50;;;;;;;11.92;67.75;101473.81;5058226;28;20236;-78
2022/05/12 03:30:39;;;;;;;5.38;1.88;;;;;;;11.89;68.40;101479.06;5060570;28;20247;-78
2022/05/12 03:33:05;;;;;;;5.43;1.67;;;;;;;11.85;68.16;101480.03;5056653;28;20036;-78
2022/05/12 03:35:31;;;;;;;3.67;1.67;;;;;;;11.83;68.57;101485.28;5053610;28;20170;-78
2022/05/12 03:37:56;;;;;;;5.18;1.35;;;;;;;11.82;68.28;101488.78;5059720;28;20123;-78
2022/05/12 03:40:21;;;;;;;4.25;1.60;;;;;;;11.82;67.88;101493.13;5060151;28;20394;-78
2022/05/12 03:42:47;;;;;;;4.85;1.67;;;;;;;11.79;68.30;101498.38;5056752;28;20033;-77
2022/05/12 03:45:13;;;;;;;5.95;1.73;;;;;;;11.78;68.46;101507.13;5060267;28;20027;-77
2022/05/12 03:47:39;;;;;;;7.28;2.35;;;;;;;11.74;68.62;101506.31;5055531;28;20028;-78
2022/05/12 03:50:14;;;;;;;6.63;1.80;;;;;;;11.72;68.47;101517.66;5053978;28;20060;-78
2022/05/12 03:52:39;;;;;;;6.97;1.95;;;;;;;11.71;68.86;101526.38;5058707;28;20377;-78
2022/05/12 03:55:08;;;;;;;7.90;2.42;;;;;;;11.68;69.76;101524.69;5054848;28;20151;-78
2022/05/12 03:57:34;;;;;;;6.40;2.10;;;;;;;11.68;69.71;101528.16;5053214;28;20235;-77
2022/05/12 04:00:00;;;;;;;7.82;2.33;;;;;;;11.68;69.95;101533.34;5057543;28;20116;-77
2022/05/12 04:02:26;;;;;;;7.45;2.70;;;;;;;11.67;70.43;101528.19;5052499;28;20488;-77
2022/05/12 04:04:51;;;;;;;10.95;2.80;;;;;;;11.67;70.24;101536.84;5054221;28;20082;-77
2022/05/12 04:07:19;;;;;;;9.45;2.83;;;;;;;11.66;70.45;101535.13;5053767;28;20429;-77
2022/05/12 04:09:45;;;;;;;12.32;3.20;;;;;;;11.68;70.77;101535.97;5056713;28;20033;-78
2022/05/12 04:12:11;;;;;;;10.25;3.30;;;;;;;11.69;70.51;101539.44;5058842;28;20032;-78
2022/05/12 04:14:37;;;;;;;9.77;3.72;;;;;;;11.66;70.90;101545.56;5056824;28;20468;-78
2022/05/12 04:17:03;;;;;;;9.57;3.70;;;;;;;11.68;71.20;101543.78;5055868;28;20032;-78
2022/05/12 04:19:29;;;;;;;9.00;3.85;;;;;;;11.68;71.12;101549.00;5051916;28;20028;-78
2022/05/12 04:21:54;;;;;;;10.07;3.60;;;;;;;11.71;71.53;101552.44;5058600;28;20561;-78
2022/05/12 04:24:20;;;;;;;12.13;4.57;;;;;;;11.73;71.58;101554.13;5058282;28;20478;-78
2022/05/12 04:26:49;;;;;;;12.00;4.45;;;;;;;11.75;71.91;101556.72;5056817;28;20528;-77
2022/05/12 04:29:15;;;;;;;14.48;5.00;;;;;;;11.75;72.07;101551.50;5062504;28;20035;-77
2022/05/12 04:31:41;;;;;;;12.48;4.70;;;;;;;11.75;71.91;101549.72;5060312;28;20048;-78
2022/05/12 04:36:50;;;;;;;15.07;5.15;;;;;;;11.77;72.38;101562.75;5064087;28;20059;-77
2022/05/12 04:39:17;;;;;;;13.23;5.13;;;;;;;11.77;72.27;101567.97;5056335;28;20483;-77
2022/05/12 04:41:43;;;;;;;15.18;5.85;;;;;;;11.77;72.76;101573.19;5054432;28;20028;-77
2022/05/12 04:44:09;;;;;;;14.93;6.00;;;;;;;11.77;72.89;101574.03;5056433;28;20028;-77
2022/05/12 04:46:36;;;;;;;13.82;6.00;;;;;;;11.79;72.96;101581.81;5058948;28;20038;-77
2022/05/12 04:49:02;;;;;;;18.15;6.18;;;;;;;11.79;73.22;101587.91;5054209;28;20042;-77
2022/05/12 04:51:27;;;;;;;19.00;6.70;;;;;;;11.80;73.28;101584.41;5053975;28;20676;-78
2022/05/12 04:53:52;;;;;;;14.68;6.53;;;;;;;11.83;73.58;101591.28;5058248;28;20032;-78
2022/05/12 04:56:18;;;;;;;17.50;6.97;;;;;;;11.85;73.63;101597.34;5050623;28;20029;-78
2022/05/12 04:58:43;;;;;;;15.40;7.32;;;;;;;11.87;73.76;101592.13;5055937;28;20037;-77
2022/05/12 05:01:08;;;;;;;17.02;7.45;;;;;;;11.93;74.12;101589.38;5051248;28;20036;-78
2022/05/12 05:03:33;;;;;;;17.88;7.53;;;;;;;11.97;73.99;101594.50;5051127;28;20110;-77
2022/05/12 05:05:59;;;;;;;18.55;7.72;;;;;;;12.01;74.10;101591.88;5050645;28;20060;-77
2022/05/12 05:08:25;;;;;;;18.30;8.10;;;;;;;12.05;74.17;101598.75;5048335;28;20049;-78
2022/05/12 05:10:53;;;;;;;20.35;8.32;;;;;;;12.09;74.36;101600.41;5054073;28;20056;-77
2022/05/12 05:13:19;;;;;;;18.70;8.35;;;;;;;12.12;74.46;101602.97;5054683;28;20098;-78
2022/05/12 05:15:45;;;;;;;21.63;8.45;;;;;;;12.14;74.26;101604.63;5051776;28;20554;-78
2022/05/12 05:18:12;;;;;;;15.43;8.40;;;;;;;12.20;74.39;101615.84;5050973;28;20032;-77
2022/05/12 05:20:38;;;;;;;20.67;9.60;;;;;;;12.23;74.67;101624.47;5053151;28;20033;-77
2022/05/12 05:23:04;;;;;;;21.30;9.65;;;;;;;12.27;74.53;101626.13;5054602;28;20091;-78
2022/05/12 05:25:31;;;;;;;16.20;8.77;;;;;;;12.30;74.56;101630.41;5060229;28;20043;-77
2022/05/12 05:27:56;;;;;;;21.67;9.68;;;;;;;12.33;74.68;101624.25;5054254;28;20017;-77
2022/05/12 05:30:24;;;;;;;19.05;8.98;;;;;;;12.38;74.61;101630.25;5051842;28;20396;-77
2022/05/12 05:32:51;;;;;;;25.38;9.57;;;;;;;12.42;75.02;101634.53;5054038;28;20502;-77
2022/05/12 05:35:17;;;;;;;24.38;10.32;;;;;;;12.44;74.86;101636.22;5048285;28;20123;-77
2022/05/12 05:37:43;;;;;;;23.15;9.77;;;;;;;12.49;74.99;101635.25;5052978;28;20111;-77
2022/05/12 05:40:12;;;;;;;25.98;10.75;;;;;;;12.54;74.86;101639.47;5059503;28;20098;-78
2022/05/12 05:42:39;;;;;;;22.98;9.77;;;;;;;12.60;74.61;101647.19;5053684;28;20117;-77
2022/05/12 05:45:10;;;;;;;19.58;10.10;;;;;;;12.66;75.07;101653.16;5059733;28;20051;-78
2022/05/12 05:47:37;;;;;;;17.42;9.82;;;;;;;12.70;74.46;101660.91;5057300;28;20033;-77
2022/05/12 05:50:03;;;;;;;22.42;10.18;;;;;;;12.75;74.33;101663.41;5053962;28;20028;-77
2022/05/12 05:55:13;;;;;;;20.73;10.38;;;;;;;12.82;74.36;101679.81;5058575;28;21312;-77
2022/05/12 05:57:38;;;;;;;21.45;10.27;;;;;;;12.84;74.55;101678.88;5057673;28;20028;-77
2022/05/12 06:00:05;;;;;;;19.55;10.13;;;;;;;12.89;74.00;101684.88;5060795;28;20085;-78
2022/05/12 06:02:32;;;;;;;22.85;10.60;;;;;;;12.95;74.41;101690.84;5061191;28;20028;-77
2022/05/12 06:04:57;;;;;;;15.07;9.07;;;;;;;13.00;74.76;101694.19;5051550;28;20033;-77
2022/05/12 06:07:23;;;;;;;22.42;10.13;;;;;;;13.04;74.02;101693.25;5053861;28;20036;-77
2022/05/12 06:09:49;;;;;;;16.63;9.25;;;;;;;13.08;73.69;101701.88;5058854;28;20035;-77
2022/05/12 06:12:14;;;;;;;19.05;9.55;;;;;;;13.11;73.59;101701.81;5064117;28;20029;-77
2022/05/12 06:14:39;;;;;;;16.83;9.30;;;;;;;13.15;73.64;101706.91;5056788;28;20258;-78
2022/05/12 06:17:05;;;;;;;26.33;9.85;;;;;;;13.21;73.58;101709.41;5052946;28;20822;-77
2022/05/12 06:19:30;;;;;;;20.05;9.75;;;;;;;13.26;73.51;101704.06;5062127;28;20059;-78
2022/05/12 06:21:57;;;;;;;21.70;9.32;;;;;;;13.31;73.27;101712.66;5068795;28;20033;-78
2022/05/12 06:24:22;;;;;;;19.35;9.43;;;;;;;13.36;73.09;101709.94;5069449;28;20038;-78
2022/05/12 06:26:47;;;;;;;23.95;9.57;;;;;;;13.40;72.92;101711.63;5064908;28;20115;-77
2022/05/12 06:29:12;;;;;;;19.02;8.43;;;;;;;13.47;72.53;101715.81;5063017;28;20086;-78
2022/05/12 06:31:40;;;;;;;17.23;9.15;;;;;;;13.49;72.74;101718.38;5067074;28;20406;-78
2022/05/12 06:34:05;;;;;;;18.58;8.77;;;;;;;13.51;71.65;101714.81;5062815;28;20028;-77
2022/05/12 06:36:30;;;;;;;17.42;7.95;;;;;;;13.55;71.98;101723.47;5059514;28;20111;-77
2022/05/12 06:38:56;;;;;;;18.98;8.02;;;;;;;13.63;71.09;101725.91;5055062;28;20348;-77
2022/05/12 06:41:23;;;;;;;16.27;8.15;;;;;;;13.69;71.04;101725.75;5056677;28;20029;-78
2022/05/12 06:43:49;;;;;;;15.45;8.15;;;;;;;13.76;70.15;101732.53;5051092;28;20025;-78
2022/05/12 06:46:16;;;;;;;17.05;7.95;;;;;;;13.81;70.55;101730.69;5057467;28;20025;-77
2022/05/12 06:48:47;;;;;;;13.60;7.47;;;;;;;13.85;69.87;101736.69;5060494;28;20027;-77
2022/05/12 06:51:14;;;;;;;13.15;7.50;;;;;;;13.93;70.30;101732.09;5056706;28;20479;-77
2022/05/12 06:53:40;;;;;;;16.65;7.97;;;;;;;14.01;69.50;101734.53;5055674;28;20034;-77
2022/05/12 06:56:07;;;;;;;15.82;8.05;;;;;;;14.05;69.20;101741.41;5056931;28;20373;-77
2022/05/12 06:58:32;;;;;;;15.35;7.95;;;;;;;14.09;69.21;101735.19;5057987;28;21772;-77
2022/05/12 07:01:00;;;;;;;14.35;8.30;;;;;;;14.16;69.17;101735.06;5059624;28;20054;-77
2022/05/12 07:03:25;;;;;;;14.77;7.95;;;;;;;14.24;68.27;101748.78;5051711;28;20040;-77
2022/05/12 07:05:51;;;;;;;12.70;7.75;;;;;;;14.34;68.07;101750.25;5060645;28;20037;-77
2022/05/12 07:08:17;;;;;;;16.63;7.38;;;;;;;14.42;67.00;101747.44;5059951;28;20116;-78
2022/05/12 07:10:42;;;;;;;13.68;7.75;;;;;;;14.50;67.45;101745.44;5055055;28;20136;-77
2022/05/12 07:13:08;;;;;;;15.48;7.18;;;;;;;14.62;66.51;101748.63;5064994;28;20566;-77
2022/05/12 07:15:33;;;;;;;18.50;7.75;;;;;;;14.67;65.00;101758.09;5054637;28;20075;-78
2022/05/12 07:17:59;;;;;;;14.30;7.82;;;;;;;14.71;64.42;101754.50;5060636;28;20037;-77
2022/05/12 07:28:41;;;;;;;17.15;8.13;;;;;;;14.86;64.58;101762.81;5056319;28;20050;-78
2022/05/12 07:31:09;;;;;;;13.27;7.90;;;;;;;14.87;63.52;101775.00;5057276;28;20032;-77
2022/05/12 07:33:48;;;;;;;13.38;7.70;;;;;;;14.90;62.93;101767.06;5054891;28;20025;-77
2022/05/12 07:36:25;;;;;;;14.38;7.72;;;;;;;14.94;63.09;101776.56;5052644;28;20031;-77
2022/05/12 07:38:51;;;;;;;12.27;6.22;;;;;;;14.95;60.64;101778.28;5060160;28;20021;-77
2022/05/12 07:41:18;;;;;;;12.98;7.20;;;;;;;14.94;61.63;101778.34;5069449;28;20043;-77
2022/05/12 07:43:45;;;;;;;13.25;7.55;;;;;;;14.98;61.47;101777.31;5073198;28;20382;-77
2022/05/12 07:46:12;;;;;;;19.10;7.55;;;;;;;15.05;61.12;101778.00;5062401;28;20024;-78
2022/05/12 07:48:39;;;;;;;14.60;7.28;;;;;;;15.11;61.00;101783.06;5066954;28;20040;-78
2022/05/12 07:51:04;;;;;;;14.52;7.35;;;;;;;15.16;61.07;101782.00;5066794;28;20025;-79
2022/05/12 07:53:31;;;;;;;10.60;6.43;;;;;;;15.24;59.52;101776.53;5066261;28;20028;-78
2022/05/12 07:55:57;;;;;;;13.73;7.40;;;;;;;15.32;59.07;101785.03;5063264;28;20058;-79
2022/05/12 07:58:23;;;;;;;12.52;7.28;;;;;;;15.35;60.11;101791.94;5067233;28;20120;-78
2022/05/12 08:00:48;;;;;;;13.77;7.07;;;;;;;15.40;59.37;101789.19;5066595;28;20104;-78
2022/05/12 08:03:13;;;;;;;12.43;6.65;;;;;;;15.46;57.99;101791.63;5068264;28;20063;-79
2022/05/12 08:05:39;;;;;;;12.18;6.93;;;;;;;15.53;58.03;101794.91;5064938;28;20024;-78
2022/05/12 08:08:06;;;;;;;15.02;7.00;;;;;;;15.63;58.36;101791.94;5069234;28;20020;-78
2022/05/12 08:10:33;;;;;;;12.32;6.35;;;;;;;15.69;57.16;101790.88;5067719;28;20060;-79
2022/05/12 08:12:58;;;;;;;11.50;7.00;;;;;;;15.69;57.12;101800.53;5065909;28;20024;-79
2022/05/12 08:15:25;;;;;;;12.35;6.40;;;;;;;15.69;56.55;101805.78;5070459;28;20024;-78
2022/05/12 08:17:55;;;;;;;12.00;6.00;;;;;;;15.72;56.86;101801.28;5068372;28;20126;-79
2022/05/12 08:20:21;;;;;;;9.13;5.80;;;;;;;15.73;55.09;101802.13;5066966;28;20522;-79
2022/05/12 08:22:47;;;;;;;10.48;5.90;;;;;;;15.73;55.30;101808.25;5076153;28;20024;-79
2022/05/12 08:25:13;;;;;;;8.80;5.45;;;;;;;15.78;55.39;101805.47;5065663;28;20024;-78
2022/05/12 08:27:39;;;;;;;13.27;5.15;;;;;;;15.85;54.66;101800.88;5066041;28;20032;-78
2022/05/12 08:30:09;;;;;;;9.57;5.32;;;;;;;15.93;53.44;101805.00;5067554;28;20025;-78
2022/05/12 08:32:35;;;;;;;13.05;5.22;;;;;;;15.99;54.06;101814.44;5062377;28;20033;-78
2022/05/12 08:35:01;;;;;;;11.77;5.40;;;;;;;16.05;53.68;101813.41;5068036;28;20071;-78
2022/05/12 08:37:26;;;;;;;8.05;4.88;;;;;;;16.07;52.65;101808.94;5062929;28;20068;-78
2022/05/12 08:39:51;;;;;;;9.25;6.38;;;;;;;16.06;53.75;101802.84;5071814;28;20116;-78
2022/05/12 08:42:38;;;;;;;7.30;4.43;;;;;;;16.04;54.08;101809.91;5065442;28;20698;-78
2022/05/12 08:45:06;;;;;;;8.82;4.05;;;;;;;16.00;52.45;101805.66;5065212;28;20029;-78
2022/05/12 08:47:35;;;;;;;7.28;3.72;;;;;;;15.99;51.71;101803.09;5065400;28;20102;-78
2022/05/12 08:50:01;;;;;;;10.20;4.20;;;;;;;16.00;51.27;101804.81;5066482;28;20514;-78
2022/05/12 08:52:38;;;;;;;7.15;4.00;;;;;;;16.03;52.92;101799.47;5064367;28;20060;-78
2022/05/12 08:55:28;;;;;;;8.63;4.40;;;;;;;16.11;53.14;101807.09;5058559;28;20103;-79
2022/05/12 08:57:57;;;;;;;9.45;4.38;;;;;;;16.19;51.31;101815.53;5062743;28;20043;-80
2022/05/12 09:00:25;;;;;;;6.47;3.22;;;;;;;16.27;47.65;101812.66;5067639;28;20471;-79
2022/05/12 09:03:17;;;;;;;6.10;2.72;;;;;;;16.37;49.48;101814.06;5066051;28;20040;-80
2022/05/12 09:05:55;;;;;;;9.88;3.35;;;;;;;16.44;49.65;101820.81;5069727;28;20025;-79
2022/05/12 09:08:36;;;;;;;9.48;3.88;;;;;;;16.48;50.15;101811.09;5063937;28;20525;-80
2022/05/12 09:11:14;;;;;;;11.60;3.60;;;;;;;16.45;49.12;101821.69;5070383;28;20438;-79
2022/05/12 09:13:52;;;;;;;6.07;3.22;;;;;;;16.41;49.32;101826.16;5071480;28;20147;-79
2022/05/12 09:16:25;;;;;;;9.70;3.00;;;;;;;16.44;48.39;101830.47;5068399;28;20043;-78
2022/05/12 09:18:53;;;;;;;6.18;2.78;;;;;;;16.50;45.99;101825.00;5070409;28;20028;-79
2022/05/12 09:21:26;;;;;;;5.80;2.50;;;;;;;16.57;45.67;101825.66;5066892;28;20037;-79
2022/05/12 09:23:52;;;;;;;6.95;2.50;;;;;;;16.65;45.91;101821.81;5073799;28;20063;-79
2022/05/12 09:26:41;;;;;;;10.02;3.33;;;;;;;16.70;47.18;101811.16;5066596;28;20464;-79
2022/05/12 09:29:08;;;;;;;6.38;3.60;;;;;;;16.71;46.48;101815.50;5063765;28;20028;-78
2022/05/12 09:31:34;;;;;;;9.77;3.50;;;;;;;16.72;48.03;101821.59;5068453;28;20918;-78
2022/05/12 09:34:14;;;;;;;8.98;2.67;;;;;;;16.74;46.58;101823.25;5070126;28;20499;-78
2022/05/12 09:36:40;;;;;;;4.13;2.00;;;;;;;16.74;42.77;101820.63;5063606;28;20031;-79
2022/05/12 09:39:05;;;;;;;5.15;2.00;;;;;;;16.74;43.21;101822.41;5060689;28;20032;-79
2022/05/12 09:41:41;;;;;;;8.52;2.45;;;;;;;16.80;45.32;101816.94;5062752;28;20048;-78
2022/05/12 09:44:17;;;;;;;5.38;2.00;;;;;;;16.88;44.21;101808.78;5062186;28;20021;-78
2022/05/12 09:46:59;;;;;;;6.47;2.10;;;;;;;16.94;45.18;101813.78;5062765;28;20070;-78
2022/05/12 09:49:31;;;;;;;5.95;2.33;;;;;;;16.99;45.03;101811.88;5066695;28;20021;-79
2022/05/12 09:51:57;;;;;;;6.40;2.13;;;;;;;17.04;43.85;101812.59;5068434;28;20402;-78
2022/05/12 09:54:29;;;;;;;4.32;2.25;;;;;;;17.03;43.95;101812.63;5068009;28;20147;-79
2022/05/12 09:57:00;;;;;;;8.57;2.15;;;;;;;16.92;43.61;101815.63;5064261;28;20028;-79
2022/05/12 09:59:29;;;;;;;3.50;1.70;;;;;;;16.83;43.39;101817.69;5063916;28;20035;-80
2022/05/12 10:01:58;;;;;;;7.88;1.85;;;;;;;16.79;42.98;101810.81;5066448;28;20119;-80
2022/05/12 10:10:22;;;;;;;4.28;2.13;;;;;;;16.78;42.96;101803.84;5068148;28;20147;-78
2022/05/12 10:13:03;;;;;;;3.63;1.85;;;;;;;16.89;45.27;101807.88;5069192;28;20514;-79
2022/05/12 10:15:31;;;;;;;4.97;2.13;;;;;;;17.06;42.11;101799.38;5067020;28;20028;-79
2022/05/12 10:18:08;;;;;;;6.30;2.10;;;;;;;17.22;42.89;101797.88;5070489;28;20021;-78
2022/05/12 10:20:38;;;;;;;7.70;2.00;;;;;;;17.39;42.04;101812.13;5067417;28;20055;-79
2022/05/12 10:23:17;;;;;;;5.68;2.15;;;;;;;17.54;42.84;101808.06;5066273;28;20090;-80
2022/05/12 10:26:00;;;;;;;4.85;2.20;;;;;;;17.64;41.83;101803.28;5068185;28;20065;-78
2022/05/12 10:28:45;;;;;;;4.50;2.20;;;;;;;17.70;43.23;101803.91;5064359;28;20028;-78
2022/05/12 10:31:27;;;;;;;4.25;2.22;;;;;;;17.74;43.50;101810.75;5068191;28;20025;-78
2022/05/12 10:34:30;;;;;;;4.75;2.38;;;;;;;17.74;42.88;101810.75;5072720;28;20027;-79
2022/05/12 10:37:25;;;;;;;4.05;1.98;;;;;;;17.79;39.50;101822.84;5073103;28;20449;-79
2022/05/12 10:40:23;;;;;;;3.63;1.50;;;;;;;17.80;41.18;101799.13;5074730;28;20137;-80
2022/05/12 10:43:21;;;;;;;2.67;1.60;;;;;;;17.90;41.54;101792.53;5065805;28;20060;-78
2022/05/12 10:46:03;;;;;;;5.63;1.60;;;;;;;18.02;40.57;101801.75;5064173;28;20063;-78
2022/05/12 10:48:53;;;;;;;4.88;1.70;;;;;;;18.07;38.32;101805.97;5072000;28;20035;-79
2022/05/12 10:51:32;;;;;;;4.57;1.73;;;;;;;18.17;39.09;101804.66;5066866;28;20055;-79
2022/05/12 10:54:25;;;;;;;3.10;1.67;;;;;;;18.30;39.21;101794.44;5072635;28;20028;-77
2022/05/12 10:57:11;;;;;;;2.95;1.60;;;;;;;18.38;40.32;101799.38;5067359;28;20029;-79
2022/05/12 11:00:15;;;;;;;4.47;1.60;;;;;;;18.41;40.77;101794.00;5068639;28;20032;-79
2022/05/12 11:02:42;;;;;;;4.63;1.60;;;;;;;18.35;35.90;101797.75;5023503;28;20083;-81
2022/05/12 11:05:26;;;;;;;5.25;1.45;;;;;;;18.28;37.72;101805.03;5020122;28;20071;-79
2022/05/12 11:08:04;;;;;;;2.78;1.17;;;;;;;18.22;38.06;101805.31;5044518;28;20044;-79
2022/05/12 11:10:48;;;;;;;3.83;1.45;;;;;;;18.19;38.60;101798.38;5059188;28;20194;-79
2022/05/12 11:13:32;;;;;;;5.00;1.70;;;;;;;18.24;38.75;101795.56;5075912;28;20081;-78
2022/05/12 11:16:21;;;;;;;6.75;2.03;;;;;;;18.28;38.42;101789.22;5072749;28;20103;-79
2022/05/12 11:19:11;;;;;;;6.47;2.10;;;;;;;18.41;40.36;101792.19;5072994;28;20029;-79
2022/05/12 11:22:01;;;;;;;5.47;2.10;;;;;;;18.56;39.45;101784.53;5070825;28;20035;-79
2022/05/12 11:24:42;;;;;;;5.00;2.00;;;;;;;18.61;38.92;101780.78;5071635;28;21549;-79
2022/05/12 11:27:10;;;;;;;3.80;1.70;;;;;;;18.66;36.82;101773.50;5072614;28;20024;-79
2022/05/12 11:29:48;;;;;;;3.92;1.65;;;;;;;18.67;35.34;101777.03;5067048;28;20055;-79
2022/05/12 11:32:23;;;;;;;3.60;1.90;;;;;;;18.68;37.40;101786.63;5061567;28;20020;-79
2022/05/12 11:34:54;;;;;;;8.15;2.10;;;;;;;18.72;38.25;101787.34;5061263;28;20044;-79
2022/05/12 11:37:29;;;;;;;4.95;1.85;;;;;;;18.76;36.61;101783.66;5060599;28;20028;-79
2022/05/12 11:39:56;;;;;;;3.33;1.80;;;;;;;18.73;35.97;101778.53;5060809;28;20142;-79
2022/05/12 11:45:49;;;;;;;6.93;2.20;;;;;;;18.85;38.71;101782.38;5069658;28;20039;-79
2022/05/12 11:48:41;;;;;;;6.93;2.10;;;;;;;18.91;37.13;101788.22;5037561;28;20040;-79
2022/05/12 11:51:06;;;;;;;;;;;;;;;18.94;38.67;101788.13;5074392;28;20032;-79
2022/05/12 11:53:56;;;;;;;6.10;2.38;;;;;;;18.92;37.21;101774.13;5073596;28;20002;-79
2022/05/12 11:56:43;;;;;;;5.32;2.65;;;;;;;18.95;37.06;101779.28;5066786;28;20389;-78